Time;durP1;ratioP1;P1;durP2;ratioP2;P2;SDS_P1;SDS_P2;PMS_P1;PMS_P2;Temp;Humidity;BMP_temperature;BMP_pressure;BME280_temperature;BME280_humidity;BME280_pressure;Samples;Min_cycle;Max_cycle;Signal;HPM_P1;HPM_P2
2021/12/16 00:08:48;;;;;;;37.05;22.52;;;;;;;11.86;50.95;96872.63;5090743;28;20042;-65
2021/12/16 00:19:24;;;;;;;37.83;22.08;;;;;;;11.79;51.07;96848.88;5090685;28;20024;-68
2021/12/16 00:33:32;;;;;;;27.35;18.98;;;;;;;12.04;50.51;96860.59;5091027;28;20077;-63
2021/12/16 00:35:59;;;;;;;24.73;17.98;;;;;;;12.00;50.17;96871.00;5089684;28;20042;-64
2021/12/16 00:38:25;;;;;;;21.80;17.23;;;;;;;11.79;50.14;96846.22;5089941;28;20499;-63
2021/12/16 00:40:51;;;;;;;29.23;19.20;;;;;;;12.03;50.05;96866.97;5090102;28;20443;-64
2021/12/16 00:43:22;;;;;;;18.77;16.27;;;;;;;11.92;50.13;96858.19;5089227;28;20057;-63
2021/12/16 00:48:26;;;;;;;19.55;15.93;;;;;;;11.83;49.72;96847.31;5090159;28;20603;-63
2021/12/16 00:56:11;;;;;;;25.40;17.67;;;;;;;11.94;49.45;96861.41;5069984;28;20570;-63
2021/12/16 00:58:45;;;;;;;22.65;17.40;;;;;;;12.01;49.67;96875.25;5068271;28;20028;-63
2021/12/16 01:01:57;;;;;;;23.00;18.55;;;;;;;12.09;49.69;96874.72;5069660;28;20028;-63
2021/12/16 01:35:14;;;;;;;35.00;22.60;;;;;;;11.60;50.25;96869.16;5088995;28;20038;-63
2021/12/16 01:50:31;;;;;;;35.67;21.48;;;;;;;12.12;50.00;96881.38;5088457;28;20027;-63
2021/12/16 01:53:19;;;;;;;36.85;21.98;;;;;;;12.09;49.96;96873.91;5087050;28;20034;-64
2021/12/16 01:55:48;;;;;;;37.78;22.38;;;;;;;12.23;49.58;96890.94;5089321;28;20103;-64
2021/12/16 01:58:20;;;;;;;34.30;23.10;;;;;;;11.82;49.77;96864.34;5089763;28;20482;-63
2021/12/16 02:01:19;;;;;;;36.45;22.35;;;;;;;12.10;49.92;96880.84;5089123;28;20104;-64
2021/12/16 02:03:51;;;;;;;40.33;22.90;;;;;;;11.94;49.93;96851.53;5074220;28;20028;-64
2021/12/16 02:08:44;;;;;;;36.88;21.45;;;;;;;11.77;49.93;96816.34;5088748;28;19911;-63
2021/12/16 02:11:28;;;;;;;37.35;24.20;;;;;;;12.04;49.70;96865.94;5088893;28;20377;-64
2021/12/16 02:28:08;;;;;;;39.25;22.42;;;;;;;11.59;51.04;96867.56;5089534;28;20147;-63
2021/12/16 02:31:17;;;;;;;38.72;23.58;;;;;;;11.64;50.80;96883.56;5088936;28;20029;-63
2021/12/16 02:38:47;;;;;;;43.40;23.90;;;;;;;11.63;50.74;96873.97;5089926;28;20027;-63
2021/12/16 02:41:14;;;;;;;38.17;22.42;;;;;;;10.56;52.81;96866.63;5091279;28;20020;-63
2021/12/16 02:48:39;;;;;;;50.35;26.50;;;;;;;9.18;57.31;96867.63;5092942;28;20059;-63
2021/12/16 02:51:18;;;;;;;58.28;30.15;;;;;;;9.51;57.58;96868.41;5091196;28;20032;-63
2021/12/16 02:53:48;;;;;;;58.17;29.95;;;;;;;10.14;56.24;96872.00;5092432;28;20086;-63
2021/12/16 02:56:14;;;;;;;52.67;28.52;;;;;;;9.92;56.42;96880.09;5091365;28;20024;-63
2021/12/16 02:58:44;;;;;;;49.72;28.10;;;;;;;9.09;58.71;96875.22;5090796;28;20028;-63
2021/12/16 03:01:17;;;;;;;62.63;31.30;;;;;;;10.17;55.99;96860.84;5092224;28;20020;-62
2021/12/16 03:03:43;;;;;;;51.05;29.80;;;;;;;10.29;55.78;96842.06;5091292;28;20492;-63
2021/12/16 03:06:11;;;;;;;50.40;28.52;;;;;;;10.14;55.17;96853.41;5091396;28;20117;-63
2021/12/16 03:08:38;;;;;;;46.80;26.45;;;;;;;10.08;56.04;96879.16;5091759;28;20050;-63
2021/12/16 03:13:37;;;;;;;56.05;29.85;;;;;;;9.41;57.54;96855.84;5092312;28;20054;-63
2021/12/16 03:19:18;;;;;;;57.42;30.90;;;;;;;8.57;59.55;96875.75;5067669;28;20036;-63
2021/12/16 03:21:49;;;;;;;70.45;34.25;;;;;;;8.77;60.32;96898.28;5091079;28;20024;-63
2021/12/16 03:27:18;;;;;;;60.63;30.85;;;;;;;8.03;61.78;96902.09;5092154;28;20445;-63
2021/12/16 03:35:03;;;;;;;73.97;33.05;;;;;;;8.44;61.18;96901.84;5091918;28;20046;-66
2021/12/16 03:37:30;;;;;;;79.53;34.05;;;;;;;7.76;62.61;96887.94;5091309;28;20020;-62
2021/12/16 03:40:10;;;;;;;110.85;39.22;;;;;;;8.83;60.44;96890.09;5088549;28;20082;-62
2021/12/16 03:42:40;;;;;;;106.28;36.65;;;;;;;8.39;60.74;96915.03;5090573;28;20066;-62
2021/12/16 03:48:45;;;;;;;111.45;40.67;;;;;;;8.74;61.10;96926.09;5090720;28;20118;-63
2021/12/16 03:51:14;;;;;;;;;;;;;;;9.21;60.30;96916.75;5089243;28;20031;-62
2021/12/16 03:53:42;;;;;;;104.53;39.55;;;;;;;9.04;59.69;96900.94;5090869;28;20392;-63
2021/12/16 03:56:08;;;;;;;111.25;41.33;;;;;;;8.71;59.98;96896.63;5089970;28;20030;-62
2021/12/16 03:58:33;;;;;;;100.35;40.78;;;;;;;9.08;59.77;96907.34;5089684;28;20447;-63
2021/12/16 04:01:03;;;;;;;107.95;41.20;;;;;;;9.28;58.67;96899.56;5089488;28;20027;-62
2021/12/16 04:03:28;;;;;;;66.47;31.98;;;;;;;7.96;61.12;96903.31;5089986;28;20016;-62
2021/12/16 04:05:54;;;;;;;68.75;33.50;;;;;;;7.74;62.36;96927.13;5090522;28;20655;-63
2021/12/16 04:08:20;;;;;;;69.43;32.63;;;;;;;8.14;61.85;96934.03;5090502;28;20556;-63
2021/12/16 04:10:53;;;;;;;59.20;29.65;;;;;;;7.42;64.08;96929.50;5089238;28;20032;-62
2021/12/16 04:13:19;;;;;;;52.30;25.45;;;;;;;6.90;66.04;96948.16;5091187;28;20623;-62
2021/12/16 04:15:45;;;;;;;59.08;28.13;;;;;;;6.99;64.36;96917.66;5089547;28;20024;-63
2021/12/16 04:18:11;;;;;;;50.35;26.95;;;;;;;7.50;63.51;96935.22;5090717;28;20122;-62
2021/12/16 04:20:37;;;;;;;66.55;29.60;;;;;;;8.10;62.13;96939.03;5090720;28;20704;-63
2021/12/16 04:23:05;;;;;;;52.40;27.35;;;;;;;8.39;61.30;96960.13;5090427;28;20028;-63
2021/12/16 04:25:35;;;;;;;49.97;26.23;;;;;;;6.84;63.77;96890.91;5090703;28;20069;-62
2021/12/16 04:28:04;;;;;;;63.10;28.58;;;;;;;7.94;62.65;96937.22;5089556;28;20457;-62
2021/12/16 04:30:31;;;;;;;65.93;31.23;;;;;;;8.66;60.58;96925.75;5090339;28;20028;-63
2021/12/16 04:32:58;;;;;;;61.15;30.83;;;;;;;8.82;59.68;96949.53;5090731;28;20501;-62
2021/12/16 04:35:23;;;;;;;61.80;30.70;;;;;;;8.74;59.09;96918.13;5090447;28;20052;-63
2021/12/16 04:37:49;;;;;;;66.15;31.08;;;;;;;9.32;58.47;96951.13;5089393;28;20487;-62
2021/12/16 04:40:17;;;;;;;47.88;24.25;;;;;;;8.07;60.31;96947.47;5088442;28;20034;-63
2021/12/16 04:42:44;;;;;;;70.10;29.80;;;;;;;9.19;58.61;96945.41;5090363;28;20027;-63
2021/12/16 04:45:14;;;;;;;47.60;23.88;;;;;;;8.45;59.56;96953.88;5090789;28;20054;-62
2021/12/16 04:47:40;;;;;;;53.47;25.48;;;;;;;8.49;59.49;96942.50;5090364;28;20397;-63
2021/12/16 04:50:09;;;;;;;47.67;25.15;;;;;;;8.54;59.16;96928.50;5089679;28;20020;-63
2021/12/16 04:52:35;;;;;;;47.10;25.58;;;;;;;9.01;59.02;96907.56;5087947;28;20119;-62
2021/12/16 04:55:04;;;;;;;51.00;25.42;;;;;;;9.36;57.35;96967.34;5090076;28;20024;-63
2021/12/16 04:57:29;;;;;;;39.28;23.80;;;;;;;9.09;58.23;96943.44;5090071;28;20024;-63
2021/12/16 04:59:55;;;;;;;34.35;19.77;;;;;;;7.59;60.93;96954.16;5089590;28;20077;-63
2021/12/16 05:02:23;;;;;;;45.65;23.70;;;;;;;7.87;61.68;96976.31;5087933;28;20235;-63
2021/12/16 05:04:49;;;;;;;36.72;21.60;;;;;;;7.80;61.65;96952.63;5090072;28;20047;-63
2021/12/16 05:07:16;;;;;;;48.10;24.67;;;;;;;8.43;61.05;96969.19;5087939;28;20028;-62
2021/12/16 05:12:10;;;;;;;44.13;22.80;;;;;;;8.59;60.54;96985.06;5090189;28;20042;-63
2021/12/16 05:14:36;;;;;;;34.67;20.50;;;;;;;8.38;59.92;96990.34;5088000;28;20024;-63
2021/12/16 05:17:08;;;;;;;32.58;19.35;;;;;;;8.26;60.34;96991.22;5089768;28;20473;-63
2021/12/16 05:19:33;;;;;;;31.17;18.35;;;;;;;8.08;60.22;96991.47;5089359;28;20110;-63
2021/12/16 05:24:15;;;;;;;26.58;17.52;;;;;;;7.50;61.81;96980.22;5082166;28;20118;-63
2021/12/16 05:24:45;;;;;;;23.65;16.98;;;;;;;7.59;62.26;96971.91;5089191;28;20385;-63
2021/12/16 05:27:11;;;;;;;31.45;18.35;;;;;;;8.05;61.07;97003.38;5088354;28;20020;-64
2021/12/16 05:29:37;;;;;;;29.15;18.15;;;;;;;8.07;60.75;96998.63;5088951;28;20023;-63
2021/12/16 05:32:04;;;;;;;30.10;19.02;;;;;;;8.08;60.44;97002.06;5088069;28;20050;-62
2021/12/16 05:34:30;;;;;;;24.73;17.08;;;;;;;8.57;59.16;96996.97;5088200;28;20043;-62
2021/12/16 05:36:55;;;;;;;26.05;16.88;;;;;;;8.29;59.38;96996.06;5088728;28;20028;-62
2021/12/16 05:39:22;;;;;;;26.10;18.02;;;;;;;8.30;59.38;97018.06;5088669;28;20020;-62
2021/12/16 05:41:48;;;;;;;29.70;18.25;;;;;;;8.38;58.49;96990.34;5088004;28;20025;-63
2021/12/16 05:44:15;;;;;;;29.17;17.85;;;;;;;8.96;58.31;97016.31;5088028;28;20023;-63
2021/12/16 05:46:41;;;;;;;32.13;18.33;;;;;;;9.31;57.36;96989.34;5089567;28;20028;-65
2021/12/16 05:49:09;;;;;;;25.55;14.50;;;;;;;7.86;59.08;97007.31;5088873;28;20456;-63
2021/12/16 05:51:38;;;;;;;23.48;15.57;;;;;;;8.28;59.21;97020.94;5081915;28;20028;-63
2021/12/16 05:54:05;;;;;;;22.20;16.40;;;;;;;8.17;59.59;97010.44;5081980;28;20540;-62
2021/12/16 05:56:30;;;;;;;25.80;16.52;;;;;;;8.97;58.15;97027.72;5087779;28;20505;-63
2021/12/16 05:58:57;;;;;;;23.52;14.43;;;;;;;8.30;58.02;97013.56;5089018;28;20020;-63
2021/12/16 06:01:29;;;;;;;25.65;15.38;;;;;;;8.64;58.77;97037.38;5088389;28;20473;-63
2021/12/16 06:03:57;;;;;;;26.33;16.55;;;;;;;9.57;57.13;97038.22;5089348;28;20035;-65
2021/12/16 06:06:23;;;;;;;28.70;17.30;;;;;;;9.67;56.07;96995.00;5088446;28;20028;-63
2021/12/16 06:08:49;;;;;;;22.08;16.65;;;;;;;9.51;55.53;97022.47;5088748;28;20103;-63
2021/12/16 06:14:00;;;;;;;23.17;15.43;;;;;;;9.11;55.80;97043.03;5091325;28;20081;-64
2021/12/16 06:27:26;;;;;;;17.70;13.10;;;;;;;7.25;60.14;97022.94;5093181;28;20051;-64
2021/12/16 06:29:52;;;;;;;21.23;14.55;;;;;;;8.12;59.89;97063.38;5092671;28;20128;-62
2021/12/16 06:32:18;;;;;;;19.48;14.40;;;;;;;7.89;60.29;97065.13;5093078;28;20067;-64
2021/12/16 06:34:44;;;;;;;21.30;14.55;;;;;;;7.76;60.39;97071.50;5091675;28;20107;-62
2021/12/16 06:37:11;;;;;;;24.27;14.98;;;;;;;8.33;59.42;97065.28;5091959;28;20039;-62
2021/12/16 06:39:37;;;;;;;26.38;16.92;;;;;;;8.72;58.46;97068.81;5090831;28;20024;-64
2021/12/16 06:42:06;;;;;;;30.45;17.00;;;;;;;9.21;57.50;97066.22;5092678;28;20016;-65
2021/12/16 06:44:38;;;;;;;26.55;16.33;;;;;;;9.08;56.51;97066.63;5092673;28;20016;-61
2021/12/16 06:47:06;;;;;;;24.80;16.85;;;;;;;9.31;56.42;97057.59;5092707;28;20392;-64
2021/12/16 06:49:34;;;;;;;23.27;16.08;;;;;;;9.07;55.67;97065.03;5092244;28;20030;-62
2021/12/16 06:52:04;;;;;;;22.52;15.68;;;;;;;8.39;57.65;97052.94;5087214;28;20035;-64
2021/12/16 06:54:55;;;;;;;26.92;17.60;;;;;;;8.86;57.11;97056.00;5090891;28;20117;-66
2021/12/16 07:00:27;;;;;;;27.27;16.73;;;;;;;8.04;58.88;97054.78;5062764;28;20610;-64
2021/12/16 07:03:04;;;;;;;27.98;17.20;;;;;;;9.02;57.14;97073.72;5071028;28;20025;-65
2021/12/16 07:05:37;;;;;;;32.15;18.45;;;;;;;9.70;55.84;97058.28;5087905;28;20029;-65
2021/12/16 07:08:05;;;;;;;23.48;15.85;;;;;;;9.89;54.77;97048.09;5087020;28;20213;-63
2021/12/16 07:10:31;;;;;;;26.83;17.38;;;;;;;9.67;54.36;97064.06;5091903;28;20484;-63
2021/12/16 07:13:05;;;;;;;25.90;16.92;;;;;;;10.11;53.86;97050.66;5091942;28;20059;-63
2021/12/16 07:15:31;;;;;;;21.48;14.52;;;;;;;10.50;52.67;97066.41;5092149;28;20378;-64
2021/12/16 07:17:57;;;;;;;23.63;15.70;;;;;;;10.50;52.84;97035.28;5091770;28;20186;-64
2021/12/16 07:20:27;;;;;;;23.65;16.23;;;;;;;10.83;52.20;97058.09;5091352;28;20543;-62
2021/12/16 07:22:53;;;;;;;21.98;15.55;;;;;;;11.01;51.65;97069.38;5086732;28;20046;-61
2021/12/16 07:25:19;;;;;;;22.98;15.80;;;;;;;11.03;51.19;97043.28;5090565;28;20028;-62
2021/12/16 07:27:45;;;;;;;22.67;15.77;;;;;;;11.34;50.91;97074.31;5092180;28;20024;-61
2021/12/16 07:30:13;;;;;;;18.52;14.55;;;;;;;11.48;50.60;97074.63;5089801;28;20492;-62
2021/12/16 07:32:39;;;;;;;22.27;15.13;;;;;;;11.51;50.72;97058.09;5090662;28;20031;-62
2021/12/16 07:35:07;;;;;;;24.63;16.55;;;;;;;11.75;49.67;97070.94;5090293;28;20012;-62
2021/12/16 07:37:33;;;;;;;16.98;13.77;;;;;;;11.76;49.80;97061.88;5090975;28;20028;-62
2021/12/16 07:40:05;;;;;;;18.25;14.38;;;;;;;11.31;49.73;97077.50;5090639;28;20073;-62
2021/12/16 07:42:42;;;;;;;18.40;14.02;;;;;;;11.21;49.54;97072.13;5091620;28;20024;-62
2021/12/16 07:45:07;;;;;;;17.13;13.93;;;;;;;11.48;49.23;97076.50;5089747;28;20074;-62
2021/12/16 07:47:33;;;;;;;21.50;14.55;;;;;;;11.72;49.34;97077.63;5089866;28;20097;-61
2021/12/16 07:49:58;;;;;;;23.67;15.93;;;;;;;11.81;49.26;97065.34;5090835;28;20032;-62
2021/12/16 07:52:23;;;;;;;19.15;14.07;;;;;;;12.01;49.00;97083.28;5088700;28;20110;-62
2021/12/16 07:54:49;;;;;;;17.10;13.27;;;;;;;12.11;48.62;97093.97;5090905;28;20458;-62
2021/12/16 07:57:14;;;;;;;17.48;14.13;;;;;;;12.17;48.78;97084.09;5091343;28;20035;-62
2021/12/16 07:59:40;;;;;;;18.38;14.52;;;;;;;12.29;48.06;97086.53;5089192;28;20062;-63
2021/12/16 08:02:11;;;;;;;19.05;14.50;;;;;;;12.35;48.13;97088.91;5089900;28;20039;-62
2021/12/16 08:04:41;;;;;;;18.70;14.50;;;;;;;12.34;48.21;97081.97;5090130;28;20340;-63
2021/12/16 08:07:08;;;;;;;19.35;14.52;;;;;;;12.46;48.07;97093.19;5088334;28;20455;-63
2021/12/16 08:09:40;;;;;;;17.83;13.93;;;;;;;12.49;47.77;97084.66;5088778;28;20020;-64
2021/12/16 08:12:07;;;;;;;16.73;13.75;;;;;;;12.28;46.45;97091.03;5083022;28;20024;-63
2021/12/16 08:14:32;;;;;;;14.18;12.35;;;;;;;11.76;46.86;97107.22;5089729;28;20043;-62
2021/12/16 08:16:58;;;;;;;14.57;12.48;;;;;;;12.10;47.69;97099.56;5090940;28;20474;-62
2021/12/16 08:19:23;;;;;;;14.88;12.60;;;;;;;12.36;47.96;97111.06;5090284;28;20031;-62
2021/12/16 08:21:49;;;;;;;15.38;12.68;;;;;;;11.88;48.33;97100.63;5088919;28;20107;-60
2021/12/16 08:24:16;;;;;;;16.05;12.75;;;;;;;12.37;48.21;97101.97;5090556;28;20031;-61
2021/12/16 08:26:43;;;;;;;15.73;12.20;;;;;;;12.54;47.84;97115.06;5090684;28;20097;-61
2021/12/16 08:29:09;;;;;;;18.95;13.18;;;;;;;12.51;47.99;97110.25;5090055;28;20024;-61
2021/12/16 08:31:35;;;;;;;17.42;12.60;;;;;;;12.63;47.56;97110.78;5090870;28;20111;-61
2021/12/16 08:34:01;;;;;;;15.00;13.27;;;;;;;12.90;47.10;97105.94;5089393;28;20030;-61
2021/12/16 08:36:27;;;;;;;14.52;11.77;;;;;;;13.07;46.84;97102.16;5090551;28;20035;-63
2021/12/16 08:38:52;;;;;;;13.73;11.85;;;;;;;13.19;46.13;97094.63;5087496;28;20089;-65
2021/12/16 08:41:23;;;;;;;13.82;12.38;;;;;;;13.23;46.05;97109.88;5090914;28;20024;-64
2021/12/16 08:43:49;;;;;;;12.50;11.20;;;;;;;13.29;45.89;97107.19;5090600;28;20052;-66
2021/12/16 08:46:19;;;;;;;14.38;12.18;;;;;;;13.11;45.34;97092.53;5089160;28;20032;-66
2021/12/16 08:48:47;;;;;;;16.70;12.65;;;;;;;13.12;45.84;97102.16;5089214;28;20023;-67
2021/12/16 08:51:16;;;;;;;18.90;13.43;;;;;;;13.34;45.89;97125.91;5090051;28;20020;-65
2021/12/16 08:53:42;;;;;;;15.82;13.05;;;;;;;13.47;45.88;97123.44;5089154;28;20062;-65
2021/12/16 08:56:08;;;;;;;13.98;11.95;;;;;;;13.40;45.75;97114.91;5090289;28;20099;-65
2021/12/16 08:58:37;;;;;;;16.00;12.70;;;;;;;13.46;45.75;97111.16;5088402;28;20062;-65
2021/12/16 09:01:14;;;;;;;12.90;11.60;;;;;;;13.57;45.42;97111.13;5088466;28;20031;-66
2021/12/16 09:03:40;;;;;;;12.80;10.93;;;;;;;13.61;45.24;97112.13;5088818;28;20630;-66
2021/12/16 09:06:06;;;;;;;10.75;9.65;;;;;;;13.62;44.20;97117.25;5088335;28;20026;-66
2021/12/16 09:08:31;;;;;;;10.85;9.75;;;;;;;13.87;44.28;97116.31;5081031;28;20103;-66
2021/12/16 09:10:57;;;;;;;10.80;8.93;;;;;;;13.85;44.12;97115.75;5090162;28;20028;-65
2021/12/16 09:13:23;;;;;;;9.55;8.65;;;;;;;13.81;44.32;97105.88;5088557;28;20020;-66
2021/12/16 09:15:56;;;;;;;10.82;9.70;;;;;;;13.77;44.10;97103.78;5089846;28;20032;-67
2021/12/16 09:18:24;;;;;;;11.63;9.50;;;;;;;14.01;43.22;97114.59;5089808;28;20432;-67
2021/12/16 09:20:51;;;;;;;10.70;9.60;;;;;;;14.14;42.94;97133.81;5089372;28;20020;-67
2021/12/16 09:23:17;;;;;;;9.68;8.77;;;;;;;14.40;43.48;97132.53;5089116;28;20024;-66
2021/12/16 09:25:45;;;;;;;9.18;8.38;;;;;;;14.40;42.52;97129.88;5089329;28;20054;-66
2021/12/16 09:28:11;;;;;;;8.07;7.38;;;;;;;14.22;41.69;97130.53;5089446;28;20424;-66
2021/12/16 09:30:37;;;;;;;8.02;7.32;;;;;;;14.38;42.20;97148.06;5089350;28;20103;-66
2021/12/16 09:33:04;;;;;;;7.88;7.13;;;;;;;14.35;42.13;97143.28;5089780;28;20526;-66
2021/12/16 09:35:34;;;;;;;8.55;7.75;;;;;;;14.42;42.61;97143.75;5089511;28;20680;-66
2021/12/16 09:38:01;;;;;;;8.13;7.47;;;;;;;14.18;42.22;97073.28;5081911;28;20031;-66
2021/12/16 09:40:29;;;;;;;8.45;7.55;;;;;;;14.79;41.71;97145.09;5088888;28;20107;-66
2021/12/16 09:42:55;;;;;;;8.90;8.10;;;;;;;14.98;41.52;97146.00;5089543;28;20027;-65
2021/12/16 09:45:22;;;;;;;7.75;7.03;;;;;;;14.90;41.02;97125.19;5089439;28;20028;-66
2021/12/16 09:47:48;;;;;;;8.80;7.28;;;;;;;14.95;41.24;97119.00;5088995;28;20043;-66
2021/12/16 09:50:19;;;;;;;7.93;6.93;;;;;;;15.20;40.63;97148.22;5087527;28;20012;-65
2021/12/16 09:52:44;;;;;;;7.85;7.15;;;;;;;14.94;40.07;97112.81;5088755;28;20478;-66
2021/12/16 09:55:10;;;;;;;6.53;5.90;;;;;;;14.90;40.91;97121.72;5087740;28;20031;-68
2021/12/16 09:57:36;;;;;;;7.00;6.40;;;;;;;14.86;40.94;97115.31;5089313;28;20020;-66
2021/12/16 10:00:09;;;;;;;7.50;6.85;;;;;;;11.49;46.57;97163.38;5087320;28;20497;-66
2021/12/16 10:02:35;;;;;;;7.70;7.05;;;;;;;10.61;49.30;97140.75;5089435;28;20020;-67
2021/12/16 10:05:01;;;;;;;8.75;7.95;;;;;;;11.28;49.69;97157.13;5087815;28;20016;-69
2021/12/16 10:07:32;;;;;;;7.95;7.15;;;;;;;12.13;47.41;97163.06;5088712;28;20028;-67
2021/12/16 10:09:59;;;;;;;7.70;7.00;;;;;;;11.75;47.67;97108.28;5087732;28;20595;-66
2021/12/16 10:12:29;;;;;;;8.18;6.57;;;;;;;10.83;49.75;97135.28;5087901;28;20051;-67
2021/12/16 10:17:29;;;;;;;6.80;6.20;;;;;;;9.28;53.95;97141.22;5089762;28;20020;-65
2021/12/16 10:20:01;;;;;;;7.68;6.13;;;;;;;10.15;52.35;97153.63;5088741;28;20065;-65
2021/12/16 10:22:33;;;;;;;;;;;;;;;9.20;54.62;97164.72;5088992;28;20023;-64
2021/12/16 10:25:28;;;;;;;7.25;6.55;;;;;;;10.56;53.35;97158.53;5088279;28;20006;-65
2021/12/16 10:28:11;;;;;;;7.95;6.72;;;;;;;11.37;50.26;97139.59;5089210;28;20481;-61
2021/12/16 10:30:36;;;;;;;7.93;7.05;;;;;;;9.26;55.37;97159.22;5089066;28;20111;-62
2021/12/16 10:33:24;;;;;;;7.70;6.90;;;;;;;10.85;51.88;97143.84;5089054;28;20129;-62
2021/12/16 10:35:58;;;;;;;6.97;6.28;;;;;;;11.76;50.61;97148.00;5089446;28;20377;-62
2021/12/16 10:38:25;;;;;;;7.45;6.60;;;;;;;12.49;48.66;97131.91;5087725;28;20553;-61
2021/12/16 10:40:53;;;;;;;7.03;6.38;;;;;;;13.13;47.51;97123.25;5088234;28;20469;-64
2021/12/16 10:43:40;;;;;;;9.27;6.82;;;;;;;13.72;46.51;97130.56;5089161;28;20085;-65
2021/12/16 10:46:13;;;;;;;5.82;5.28;;;;;;;13.33;43.72;97116.28;5088979;28;20067;-65
2021/12/16 10:48:53;;;;;;;4.72;4.32;;;;;;;11.73;46.49;97119.22;5088934;28;20024;-65
2021/12/16 10:51:27;;;;;;;4.90;4.50;;;;;;;12.46;45.63;97103.84;5087658;28;20020;-67
2021/12/16 10:54:06;;;;;;;4.35;3.95;;;;;;;11.63;47.37;97135.97;5084805;28;20024;-65
2021/12/16 10:56:32;;;;;;;5.10;4.60;;;;;;;12.49;46.00;97121.22;5088547;28;20020;-67
2021/12/16 10:59:09;;;;;;;4.00;3.60;;;;;;;9.64;51.69;97123.06;5088890;28;20027;-66
2021/12/16 11:01:45;;;;;;;4.07;3.78;;;;;;;10.67;49.97;97120.28;5091720;28;20397;-68
2021/12/16 11:04:19;;;;;;;4.07;3.78;;;;;;;10.73;50.06;97115.78;5092288;28;20062;-67
2021/12/16 11:07:07;;;;;;;4.38;3.95;;;;;;;11.35;48.61;97126.53;5092526;28;20061;-67
2021/12/16 11:09:49;;;;;;;3.88;3.50;;;;;;;11.95;47.79;97127.81;5090538;28;20028;-69
2021/12/16 11:12:25;;;;;;;5.05;4.65;;;;;;;12.87;45.98;97127.06;5085408;28;20016;-67
2021/12/16 11:15:00;;;;;;;4.40;4.00;;;;;;;12.04;45.38;97082.78;5092929;28;20035;-65
2021/12/16 11:17:45;;;;;;;4.47;4.07;;;;;;;13.32;44.76;97126.19;5092323;28;20036;-66
2021/12/16 11:20:22;;;;;;;4.40;4.00;;;;;;;13.86;43.07;97125.38;5091537;28;20024;-67
2021/12/16 11:22:52;;;;;;;4.35;3.97;;;;;;;13.37;41.73;97090.63;5091009;28;20028;-66
2021/12/16 11:25:23;;;;;;;4.00;3.55;;;;;;;12.30;44.66;97128.94;5091663;28;20039;-66
2021/12/16 11:27:54;;;;;;;4.38;3.97;;;;;;;11.87;45.97;97114.19;5091949;28;20059;-68
2021/12/16 11:30:36;;;;;;;6.00;5.50;;;;;;;11.67;47.78;97122.94;5091376;28;20020;-67
2021/12/16 11:33:15;;;;;;;6.50;5.80;;;;;;;9.64;54.65;97129.16;5092022;28;20023;-67
2021/12/16 11:35:41;;;;;;;7.30;6.60;;;;;;;11.60;49.98;97117.81;5092075;28;20031;-64
2021/12/16 11:38:14;;;;;;;5.97;5.35;;;;;;;12.25;47.98;97123.59;5090559;28;20032;-65
2021/12/16 11:40:54;;;;;;;7.10;6.40;;;;;;;12.20;47.47;97136.94;5091145;28;20024;-64
2021/12/16 11:43:34;;;;;;;6.50;5.90;;;;;;;11.31;49.68;97113.97;5091706;28;20031;-65
2021/12/16 11:46:00;;;;;;;5.57;5.07;;;;;;;10.67;50.81;97093.66;5091683;28;20028;-66
2021/12/16 11:48:31;;;;;;;6.03;5.53;;;;;;;11.76;48.10;97126.66;5091351;28;20024;-66
2021/12/16 11:51:15;;;;;;;4.97;4.57;;;;;;;12.63;46.41;97111.56;5091419;28;20046;-65
2021/12/16 11:53:49;;;;;;;5.47;4.93;;;;;;;13.50;45.33;97116.75;5090781;28;20414;-68
2021/12/16 11:56:17;;;;;;;5.68;5.20;;;;;;;11.85;46.72;97087.00;5091500;28;20031;-65
2021/12/16 11:58:44;;;;;;;5.85;5.35;;;;;;;11.05;48.00;97099.72;5091143;28;20024;-67
2021/12/16 12:01:21;;;;;;;5.90;5.40;;;;;;;11.11;49.42;97126.16;5091171;28;20024;-65
2021/12/16 12:03:47;;;;;;;5.50;5.00;;;;;;;11.37;50.06;97131.59;5091379;28;20031;-65
2021/12/16 12:06:42;;;;;;;5.78;5.28;;;;;;;11.35;50.04;97131.84;5091665;28;20062;-65
2021/12/16 12:09:08;;;;;;;6.00;5.40;;;;;;;10.76;50.20;97112.63;5087198;28;20181;-66
2021/12/16 12:11:40;;;;;;;5.93;5.32;;;;;;;11.78;48.72;97113.91;5090926;28;20024;-66
2021/12/16 12:14:10;;;;;;;5.68;5.18;;;;;;;10.92;50.18;97101.00;5086714;28;20541;-66
2021/12/16 12:16:44;;;;;;;5.97;5.47;;;;;;;10.56;50.93;97107.97;5071395;28;20628;-67
2021/12/16 12:19:17;;;;;;;5.20;4.70;;;;;;;11.48;49.27;97132.44;5070172;28;20103;-67
2021/12/16 12:21:57;;;;;;;5.80;5.22;;;;;;;11.36;49.96;97090.03;5069315;28;20056;-67
2021/12/16 12:24:25;;;;;;;5.55;5.03;;;;;;;11.78;48.93;97118.44;5084962;28;20024;-67
2021/12/16 12:26:53;;;;;;;5.25;4.80;;;;;;;12.32;47.57;97129.47;5089474;28;20028;-66
2021/12/16 12:30:01;;;;;;;5.30;4.90;;;;;;;12.28;47.27;97116.91;5090042;28;20028;-65
2021/12/16 12:32:32;;;;;;;6.47;5.25;;;;;;;12.72;46.42;97125.19;5090688;28;20054;-65
2021/12/16 12:35:07;;;;;;;5.38;4.88;;;;;;;12.54;46.33;97110.53;5090667;28;20031;-73
2021/12/16 12:37:37;;;;;;;5.50;5.00;;;;;;;12.94;45.24;97117.66;5089525;28;20020;-64
2021/12/16 12:40:15;;;;;;;5.22;4.82;;;;;;;13.33;45.02;97110.94;5082700;28;20024;-66
2021/12/16 12:42:42;;;;;;;5.40;4.90;;;;;;;12.66;46.32;97108.38;5090671;28;20031;-66
2021/12/16 12:45:10;;;;;;;4.90;4.50;;;;;;;12.03;47.85;97099.03;5090389;28;20717;-65
2021/12/16 12:47:39;;;;;;;5.53;5.03;;;;;;;12.31;47.25;97117.19;5089308;28;20032;-65
2021/12/16 12:50:14;;;;;;;6.55;5.30;;;;;;;12.09;47.16;97103.31;5090031;28;20036;-65
2021/12/16 12:52:40;;;;;;;5.03;4.63;;;;;;;12.94;46.13;97098.19;5090290;28;20043;-66
2021/12/16 12:55:15;;;;;;;5.78;5.28;;;;;;;13.69;45.30;97125.75;5083291;28;20481;-65
2021/12/16 12:57:43;;;;;;;5.22;4.57;;;;;;;14.03;44.43;97114.34;5090264;28;20024;-66
2021/12/16 13:00:31;;;;;;;5.38;4.88;;;;;;;14.30;43.95;97108.53;5089649;28;20052;-65
2021/12/16 13:03:13;;;;;;;5.43;4.93;;;;;;;14.24;43.09;97066.81;5073292;28;20060;-66
2021/12/16 13:05:39;;;;;;;9.65;4.85;;;;;;;14.74;42.83;97110.31;5088969;28;20423;-66
2021/12/16 13:08:08;;;;;;;4.63;4.22;;;;;;;14.67;42.33;97096.47;5088054;28;20108;-65
2021/12/16 13:10:42;;;;;;;3.88;3.50;;;;;;;14.75;42.42;97082.47;5089453;28;20020;-66
2021/12/16 13:13:45;;;;;;;3.83;2.92;;;;;;;14.91;41.51;97108.03;5082080;28;20389;-65
2021/12/16 13:16:24;;;;;;;3.40;3.10;;;;;;;14.80;41.61;97090.47;5089822;28;20040;-68
2021/12/16 13:25:02;;;;;;;3.00;2.70;;;;;;;14.56;40.55;97056.38;5088504;28;20475;-68
2021/12/16 13:27:44;;;;;;;2.97;2.78;;;;;;;14.67;40.53;97097.25;5089486;28;20040;-67
2021/12/16 13:33:18;;;;;;;3.15;2.85;;;;;;;14.77;41.39;97078.41;5069841;28;20115;-67
2021/12/16 13:35:52;;;;;;;2.80;2.60;;;;;;;14.77;41.46;97058.88;5069887;28;20032;-65
2021/12/16 13:38:20;;;;;;;3.38;3.00;;;;;;;14.82;41.26;97070.31;5072178;28;20012;-63
2021/12/16 13:40:47;;;;;;;2.95;2.75;;;;;;;14.91;41.39;97085.78;5087829;28;20508;-64
2021/12/16 13:43:20;;;;;;;3.05;2.70;;;;;;;15.04;41.23;97098.50;5089551;28;20111;-65
2021/12/16 13:46:03;;;;;;;2.50;2.30;;;;;;;14.25;41.12;97106.69;5088133;28;20042;-64
2021/12/16 14:01:33;;;;;;;2.72;2.53;;;;;;;13.42;43.00;97115.44;5068899;28;20066;-64
2021/12/16 14:04:37;;;;;;;2.65;2.45;;;;;;;13.46;42.86;97121.03;5064159;28;20036;-65
2021/12/16 14:07:13;;;;;;;2.53;2.33;;;;;;;13.88;42.61;97111.75;5063352;28;20113;-64
2021/12/16 14:10:05;;;;;;;2.85;2.63;;;;;;;14.20;42.20;97109.41;5081241;28;20050;-64
2021/12/16 14:15:27;;;;;;;2.95;2.55;;;;;;;14.21;41.29;97094.13;5069262;28;20539;-64
2021/12/16 14:23:24;;;;;;;2.83;2.55;;;;;;;13.50;42.11;97080.09;5069185;28;20036;-63
2021/12/16 14:31:59;;;;;;;3.00;2.80;;;;;;;12.57;44.89;97063.81;5088993;28;20039;-64
2021/12/16 14:34:52;;;;;;;3.72;3.42;;;;;;;10.83;49.68;97092.69;5089844;28;20397;-64
2021/12/16 14:50:25;;;;;;;5.93;5.32;;;;;;;10.95;51.14;97151.06;5092564;28;20054;-67
2021/12/16 14:52:51;;;;;;;5.30;4.80;;;;;;;10.60;51.75;97114.38;5091524;28;20463;-64
2021/12/16 14:55:18;;;;;;;5.80;5.20;;;;;;;11.50;49.88;97164.97;5091785;28;20052;-65
2021/12/16 14:57:51;;;;;;;5.68;5.18;;;;;;;10.72;51.31;97156.78;5091303;28;20028;-67